Recreo, Argentina
Current Conditions -  °F | °C
As of 11:00 PM on Saturday 22 Nov 2014 (Local Time) from SACO Reporting Station
Clear Clear  
Wind Chill: 17°   Ceiling: Unl
Heat Index: 17°   Visibility: 6mi
Dew Point:   Wind: 8mph
Humidity: 52%   Direction: 360°N
Pressure: 30.03"   Gusts: NA
Location:  29.27°S, 65.07°W
Report Text: SACO 230200Z 36007KT CAVOK 17/07 Q1017
Loading
Personal Weather Stations






























Interactive Weather Map New forecast layout! Learn more

10-Day Weather Forecast

Advertisements
Track Severe Weather on mobile